Main page
METAR-TAF:

METAR-TAF

Airports :

Mesquite Metro Airport

Mesquite, Texas, United States

latitude: 32-44-49N, longitude: 096-31-49W, elevation: 446 ft

Current weather observation

The report was made 8 minutes ago, at 19:50 UTC
Wind 15 mph from the South/Southeast with gusts up to 23 mph
Temperature 91°F
Humidity 53%
Pressure 29.82 in. Hg
Visibility: 10 miles
Broken clouds at a height of 4200 ft
Broken clouds at a height of 5000 ft
Broken clouds at a height of 6500 ft

METAR: KHQZ 171950Z 16013G20KT 10SM BKN042 BKN050 BKN065 33/22 A2982

Time: 14:58 (19:58 UTC)


TAF: missing

Weather observations and forecasts of more than 4000 airports (METAR and TAF reports).

The available stations are represented by yellow and red dots on the map.

Hover mouse over dot to see the name of the station.

Then click to see weather observations and forecasts.

To change the map : click on the green buttons with a black cross to zoom in, on the green button with a dash to zoom out, or on the green arrows for adjacent maps.


METAR-TAF: